Kaele Airport


Codes: FKKH/KLE
Name: Kaele Airport
City: Kaele
Country: Cameroon
Elevation: 1276 ft.

Photos at Kaele Airport


   Photos courtesy of SpottingLog. You can add your own sightings and photos by signing up for a free trial today.



No photos found.

Weather at Kaele Airport


Time (UTC)DescriptionTempratureWindCloud coverageVisibilityPressureHumidity
15-Apr-2024 18:00Broken Clouds40°C4 mph, N83%10000m1003hPa16%
15-Apr-2024 21:00Overcast Clouds38°C4 mph, NW87%10000m1005hPa18%
16-Apr-2024 00:00Overcast Clouds35°C7 mph, N95%10000m1005hPa20%
16-Apr-2024 03:00Overcast Clouds33°C2 mph, NW89%10000m1005hPa21%
16-Apr-2024 06:00Overcast Clouds33°C4 mph, NE94%10000m1007hPa16%
16-Apr-2024 09:00Overcast Clouds38°C7 mph, NW98%10000m1008hPa10%
16-Apr-2024 12:00Broken Clouds42°C4 mph, NW82%10000m1005hPa7%
16-Apr-2024 15:00Few Clouds42°C7 mph, N14%10000m1001hPa7%
16-Apr-2024 18:00Clear Sky38°C7 mph, NE10%10000m1003hPa10%
16-Apr-2024 21:00Few Clouds37°C4 mph, N15%10000m1004hPa10%
17-Apr-2024 00:00Few Clouds35°C7 mph, NW19%10000m1003hPa11%
17-Apr-2024 03:00Broken Clouds32°C4 mph, S77%10000m1004hPa14%
17-Apr-2024 06:00Overcast Clouds32°C4 mph, SW89%10000m1006hPa27%
17-Apr-2024 09:00Broken Clouds38°C4 mph, W70%10000m1006hPa13%
17-Apr-2024 12:00Broken Clouds42°C7 mph, NW56%10000m1003hPa9%
17-Apr-2024 15:00Overcast Clouds43°C2 mph, NE100%10000m1001hPa9%
17-Apr-2024 18:00Overcast Clouds39°C2 mph, E99%10000m1002hPa12%
17-Apr-2024 21:00Overcast Clouds37°C2 mph, SW100%10000m1003hPa13%
18-Apr-2024 00:00Overcast Clouds34°C7 mph, W100%10000m1003hPa21%
18-Apr-2024 03:00Overcast Clouds33°C2 mph, E100%10000m1004hPa22%
18-Apr-2024 06:00Overcast Clouds33°C4 mph, SW91%10000m1006hPa27%
18-Apr-2024 09:00Broken Clouds40°C7 mph, W52%10000m1006hPa14%
18-Apr-2024 12:00Broken Clouds43°C7 mph, NW65%10000m1002hPa9%
18-Apr-2024 15:00Broken Clouds44°C7 mph, N76%10000m1000hPa8%
18-Apr-2024 18:00Scattered Clouds39°C2 mph, N47%10000m1001hPa10%
18-Apr-2024 21:00Broken Clouds37°C7 mph, NW67%10000m1002hPa11%
19-Apr-2024 00:00Broken Clouds36°C2 mph, NW79%10000m1002hPa12%
19-Apr-2024 03:00Overcast Clouds33°C7 mph, S97%10000m1004hPa23%
19-Apr-2024 06:00Overcast Clouds32°C11 mph, SW99%10000m1005hPa42%
19-Apr-2024 09:00Broken Clouds39°C13 mph, W83%10000m1005hPa21%
19-Apr-2024 12:00Overcast Clouds40°C13 mph, SW91%10000m1003hPa19%
19-Apr-2024 15:00Overcast Clouds39°C16 mph, S100%10000m1001hPa23%
19-Apr-2024 18:00Overcast Clouds36°C9 mph, SW100%10000m1001hPa25%
19-Apr-2024 21:00Overcast Clouds36°C13 mph, SW98%10000m1003hPa30%
20-Apr-2024 00:00Overcast Clouds34°C18 mph, SW99%10000m1003hPa36%
20-Apr-2024 03:00Overcast Clouds31°C18 mph, SW100%10000m1004hPa50%
20-Apr-2024 06:00Overcast Clouds30°C16 mph, SW100%10000m1006hPa53%
20-Apr-2024 09:00Overcast Clouds36°C16 mph, SW95%10000m1007hPa35%
20-Apr-2024 12:00Broken Clouds40°C13 mph, W54%10000m1003hPa23%
20-Apr-2024 15:00Clear Sky41°C11 mph, W6%10000m1001hPa20%